sensor_id;sensor_type;location;lat;lon;timestamp;P1;durP1;ratioP1;P2;durP2;ratioP2
48526;SDS011;34317;51.660;5.824;2023-06-04T00:01:27;3.30;;;1.50;;
48526;SDS011;34317;51.660;5.824;2023-06-04T00:03:54;3.25;;;1.73;;
48526;SDS011;34317;51.660;5.824;2023-06-04T00:06:21;2.88;;;1.70;;
48526;SDS011;34317;51.660;5.824;2023-06-04T00:08:48;2.00;;;1.40;;
48526;SDS011;34317;51.660;5.824;2023-06-04T00:11:15;5.40;;;1.40;;
48526;SDS011;34317;51.660;5.824;2023-06-04T00:13:43;7.20;;;1.80;;
48526;SDS011;34317;51.660;5.824;2023-06-04T00:16:10;3.65;;;1.55;;
48526;SDS011;34317;51.660;5.824;2023-06-04T00:18:37;4.18;;;1.50;;
48526;SDS011;34317;51.660;5.824;2023-06-04T00:21:04;3.55;;;1.55;;
48526;SDS011;34317;51.660;5.824;2023-06-04T00:23:31;3.58;;;1.90;;
48526;SDS011;34317;51.660;5.824;2023-06-04T00:25:59;4.60;;;1.80;;
48526;SDS011;34317;51.660;5.824;2023-06-04T00:28:26;5.50;;;2.10;;
48526;SDS011;34317;51.660;5.824;2023-06-04T00:30:53;3.60;;;1.60;;
48526;SDS011;34317;51.660;5.824;2023-06-04T00:33:20;2.83;;;1.60;;
48526;SDS011;34317;51.660;5.824;2023-06-04T00:35:47;2.53;;;1.50;;
48526;SDS011;34317;51.660;5.824;2023-06-04T00:38:14;4.10;;;1.40;;
48526;SDS011;34317;51.660;5.824;2023-06-04T00:40:42;2.45;;;1.42;;
48526;SDS011;34317;51.660;5.824;2023-06-04T00:43:09;3.80;;;1.70;;
48526;SDS011;34317;51.660;5.824;2023-06-04T00:45:37;7.20;;;1.75;;
48526;SDS011;34317;51.660;5.824;2023-06-04T00:48:04;2.40;;;1.50;;
48526;SDS011;34317;51.660;5.824;2023-06-04T00:50:32;2.88;;;1.55;;
48526;SDS011;34317;51.660;5.824;2023-06-04T00:53:00;3.50;;;1.63;;
48526;SDS011;34317;51.660;5.824;2023-06-04T00:55:27;3.78;;;1.70;;
48526;SDS011;34317;51.660;5.824;2023-06-04T00:57:55;3.40;;;1.60;;
48526;SDS011;34317;51.660;5.824;2023-06-04T01:00:22;5.65;;;1.65;;
48526;SDS011;34317;51.660;5.824;2023-06-04T01:02:49;3.17;;;1.70;;
48526;SDS011;34317;51.660;5.824;2023-06-04T01:05:29;3.40;;;1.60;;
48526;SDS011;34317;51.660;5.824;2023-06-04T01:08:03;2.88;;;1.38;;
48526;SDS011;34317;51.660;5.824;2023-06-04T01:10:32;6.30;;;1.52;;
48526;SDS011;34317;51.660;5.824;2023-06-04T01:12:59;3.75;;;1.60;;
48526;SDS011;34317;51.660;5.824;2023-06-04T01:15:26;3.35;;;1.80;;
48526;SDS011;34317;51.660;5.824;2023-06-04T01:18:03;3.20;;;1.70;;
48526;SDS011;34317;51.660;5.824;2023-06-04T01:20:34;3.50;;;1.55;;
48526;SDS011;34317;51.660;5.824;2023-06-04T01:26:01;3.25;;;1.50;;
48526;SDS011;34317;51.660;5.824;2023-06-04T01:28:33;5.30;;;1.73;;
48526;SDS011;34317;51.660;5.824;2023-06-04T01:31:02;4.32;;;1.92;;
48526;SDS011;34317;51.660;5.824;2023-06-04T01:33:30;3.42;;;1.88;;
48526;SDS011;34317;51.660;5.824;2023-06-04T01:35:57;2.90;;;1.80;;
48526;SDS011;34317;51.660;5.824;2023-06-04T01:38:24;4.22;;;1.85;;
48526;SDS011;34317;51.660;5.824;2023-06-04T01:40:52;2.72;;;1.60;;
48526;SDS011;34317;51.660;5.824;2023-06-04T01:43:23;3.63;;;1.70;;
48526;SDS011;34317;51.660;5.824;2023-06-04T01:45:50;3.33;;;1.70;;
48526;SDS011;34317;51.660;5.824;2023-06-04T01:48:17;5.10;;;1.60;;
48526;SDS011;34317;51.660;5.824;2023-06-04T01:50:44;6.35;;;1.77;;
48526;SDS011;34317;51.660;5.824;2023-06-04T01:53:11;2.92;;;1.75;;
48526;SDS011;34317;51.660;5.824;2023-06-04T01:55:39;3.28;;;1.80;;
48526;SDS011;34317;51.660;5.824;2023-06-04T01:58:06;3.97;;;1.60;;
48526;SDS011;34317;51.660;5.824;2023-06-04T02:00:34;4.35;;;1.90;;
48526;SDS011;34317;51.660;5.824;2023-06-04T02:03:01;5.25;;;1.80;;
48526;SDS011;34317;51.660;5.824;2023-06-04T02:05:29;4.70;;;1.90;;
48526;SDS011;34317;51.660;5.824;2023-06-04T02:07:56;3.50;;;1.88;;
48526;SDS011;34317;51.660;5.824;2023-06-04T02:10:24;3.35;;;1.80;;
48526;SDS011;34317;51.660;5.824;2023-06-04T02:15:24;4.50;;;2.05;;
48526;SDS011;34317;51.660;5.824;2023-06-04T02:17:59;2.97;;;1.90;;
48526;SDS011;34317;51.660;5.824;2023-06-04T02:20:46;5.43;;;1.90;;
48526;SDS011;34317;51.660;5.824;2023-06-04T02:23:15;4.22;;;1.80;;
48526;SDS011;34317;51.660;5.824;2023-06-04T02:25:45;3.30;;;1.90;;
48526;SDS011;34317;51.660;5.824;2023-06-04T02:28:13;4.25;;;2.00;;
48526;SDS011;34317;51.660;5.824;2023-06-04T02:30:40;4.60;;;2.15;;
48526;SDS011;34317;51.660;5.824;2023-06-04T02:33:07;4.35;;;1.80;;
48526;SDS011;34317;51.660;5.824;2023-06-04T02:35:37;4.35;;;1.80;;
48526;SDS011;34317;51.660;5.824;2023-06-04T02:38:04;4.10;;;1.67;;
48526;SDS011;34317;51.660;5.824;2023-06-04T02:40:32;4.13;;;1.90;;
48526;SDS011;34317;51.660;5.824;2023-06-04T02:42:59;4.53;;;1.95;;
48526;SDS011;34317;51.660;5.824;2023-06-04T02:45:26;5.18;;;1.90;;
48526;SDS011;34317;51.660;5.824;2023-06-04T02:47:55;3.22;;;1.52;;
48526;SDS011;34317;51.660;5.824;2023-06-04T02:50:22;5.00;;;1.92;;
48526;SDS011;34317;51.660;5.824;2023-06-04T02:52:50;3.63;;;2.10;;
48526;SDS011;34317;51.660;5.824;2023-06-04T02:55:17;4.88;;;2.10;;
48526;SDS011;34317;51.660;5.824;2023-06-04T02:57:44;4.30;;;1.88;;
48526;SDS011;34317;51.660;5.824;2023-06-04T03:00:12;3.75;;;1.90;;
48526;SDS011;34317;51.660;5.824;2023-06-04T03:02:45;2.80;;;1.85;;
48526;SDS011;34317;51.660;5.824;2023-06-04T03:05:15;3.78;;;1.88;;
48526;SDS011;34317;51.660;5.824;2023-06-04T03:07:45;3.90;;;1.83;;
48526;SDS011;34317;51.660;5.824;2023-06-04T03:10:14;4.18;;;1.73;;
48526;SDS011;34317;51.660;5.824;2023-06-04T03:12:42;4.22;;;2.00;;
48526;SDS011;34317;51.660;5.824;2023-06-04T03:15:09;5.15;;;1.98;;
48526;SDS011;34317;51.660;5.824;2023-06-04T03:17:37;3.38;;;2.00;;
48526;SDS011;34317;51.660;5.824;2023-06-04T03:20:05;3.65;;;1.83;;
48526;SDS011;34317;51.660;5.824;2023-06-04T03:22:34;3.92;;;2.00;;
48526;SDS011;34317;51.660;5.824;2023-06-04T03:25:02;5.03;;;2.30;;
48526;SDS011;34317;51.660;5.824;2023-06-04T03:27:31;4.43;;;1.80;;
48526;SDS011;34317;51.660;5.824;2023-06-04T03:29:59;3.88;;;2.03;;
48526;SDS011;34317;51.660;5.824;2023-06-04T03:32:33;3.80;;;1.83;;
48526;SDS011;34317;51.660;5.824;2023-06-04T03:35:00;4.38;;;1.60;;
48526;SDS011;34317;51.660;5.824;2023-06-04T03:37:28;2.95;;;2.00;;
48526;SDS011;34317;51.660;5.824;2023-06-04T03:39:55;4.18;;;1.88;;
48526;SDS011;34317;51.660;5.824;2023-06-04T03:42:22;4.05;;;2.00;;
48526;SDS011;34317;51.660;5.824;2023-06-04T03:44:49;3.28;;;1.95;;
48526;SDS011;34317;51.660;5.824;2023-06-04T03:47:17;8.40;;;2.00;;
48526;SDS011;34317;51.660;5.824;2023-06-04T03:49:44;2.85;;;2.00;;
48526;SDS011;34317;51.660;5.824;2023-06-04T03:52:12;2.80;;;1.80;;
48526;SDS011;34317;51.660;5.824;2023-06-04T03:54:41;3.30;;;2.08;;
48526;SDS011;34317;51.660;5.824;2023-06-04T03:57:08;3.60;;;2.03;;
48526;SDS011;34317;51.660;5.824;2023-06-04T03:59:35;3.53;;;2.00;;
48526;SDS011;34317;51.660;5.824;2023-06-04T04:02:03;3.70;;;2.10;;
48526;SDS011;34317;51.660;5.824;2023-06-04T04:04:33;3.38;;;2.03;;
48526;SDS011;34317;51.660;5.824;2023-06-04T04:07:01;4.70;;;2.17;;
48526;SDS011;34317;51.660;5.824;2023-06-04T04:09:28;4.47;;;1.92;;
48526;SDS011;34317;51.660;5.824;2023-06-04T04:11:56;4.82;;;2.15;;
48526;SDS011;34317;51.660;5.824;2023-06-04T04:14:23;3.20;;;2.03;;
48526;SDS011;34317;51.660;5.824;2023-06-04T04:16:50;10.05;;;2.10;;
48526;SDS011;34317;51.660;5.824;2023-06-04T04:19:17;4.03;;;2.10;;
48526;SDS011;34317;51.660;5.824;2023-06-04T04:21:45;4.32;;;1.92;;
48526;SDS011;34317;51.660;5.824;2023-06-04T04:24:28;4.00;;;2.10;;
48526;SDS011;34317;51.660;5.824;2023-06-04T04:27:01;4.20;;;1.90;;
48526;SDS011;34317;51.660;5.824;2023-06-04T04:29:30;4.43;;;2.28;;
48526;SDS011;34317;51.660;5.824;2023-06-04T04:32:01;2.38;;;1.63;;
48526;SDS011;34317;51.660;5.824;2023-06-04T04:34:52;2.70;;;2.10;;
48526;SDS011;34317;51.660;5.824;2023-06-04T04:37:31;2.75;;;1.80;;
48526;SDS011;34317;51.660;5.824;2023-06-04T04:39:58;4.80;;;2.17;;
48526;SDS011;34317;51.660;5.824;2023-06-04T04:42:30;4.20;;;1.83;;
48526;SDS011;34317;51.660;5.824;2023-06-04T04:44:58;3.03;;;1.92;;
48526;SDS011;34317;51.660;5.824;2023-06-04T04:47:26;3.70;;;1.85;;
48526;SDS011;34317;51.660;5.824;2023-06-04T04:49:53;4.07;;;2.08;;
48526;SDS011;34317;51.660;5.824;2023-06-04T04:52:20;7.72;;;2.08;;
48526;SDS011;34317;51.660;5.824;2023-06-04T04:54:48;7.10;;;2.30;;
48526;SDS011;34317;51.660;5.824;2023-06-04T04:57:15;3.83;;;1.90;;
48526;SDS011;34317;51.660;5.824;2023-06-04T04:59:46;3.50;;;1.70;;
48526;SDS011;34317;51.660;5.824;2023-06-04T05:02:13;4.22;;;1.92;;
48526;SDS011;34317;51.660;5.824;2023-06-04T05:04:41;3.40;;;1.88;;
48526;SDS011;34317;51.660;5.824;2023-06-04T05:07:09;3.30;;;1.70;;
48526;SDS011;34317;51.660;5.824;2023-06-04T05:09:36;4.15;;;1.95;;
48526;SDS011;34317;51.660;5.824;2023-06-04T05:12:04;3.33;;;2.08;;
48526;SDS011;34317;51.660;5.824;2023-06-04T05:14:32;4.45;;;1.98;;
48526;SDS011;34317;51.660;5.824;2023-06-04T05:17:04;5.38;;;2.10;;
48526;SDS011;34317;51.660;5.824;2023-06-04T05:19:34;4.15;;;2.15;;
48526;SDS011;34317;51.660;5.824;2023-06-04T05:22:01;4.35;;;2.40;;
48526;SDS011;34317;51.660;5.824;2023-06-04T05:24:30;2.97;;;1.90;;
48526;SDS011;34317;51.660;5.824;2023-06-04T05:27:00;5.03;;;2.20;;
48526;SDS011;34317;51.660;5.824;2023-06-04T05:29:30;5.45;;;1.80;;
48526;SDS011;34317;51.660;5.824;2023-06-04T05:31:57;3.80;;;2.03;;
48526;SDS011;34317;51.660;5.824;2023-06-04T05:34:25;3.22;;;2.13;;
48526;SDS011;34317;51.660;5.824;2023-06-04T05:36:54;4.43;;;2.20;;
48526;SDS011;34317;51.660;5.824;2023-06-04T05:39:21;4.40;;;2.13;;
48526;SDS011;34317;51.660;5.824;2023-06-04T05:41:57;5.15;;;2.10;;
48526;SDS011;34317;51.660;5.824;2023-06-04T05:44:24;2.83;;;1.90;;
48526;SDS011;34317;51.660;5.824;2023-06-04T05:46:51;4.03;;;2.42;;
48526;SDS011;34317;51.660;5.824;2023-06-04T05:49:19;3.53;;;2.28;;
48526;SDS011;34317;51.660;5.824;2023-06-04T05:51:47;5.47;;;2.63;;
48526;SDS011;34317;51.660;5.824;2023-06-04T05:54:14;4.40;;;2.22;;
48526;SDS011;34317;51.660;5.824;2023-06-04T05:56:43;4.38;;;2.25;;
48526;SDS011;34317;51.660;5.824;2023-06-04T05:59:10;5.47;;;2.20;;
48526;SDS011;34317;51.660;5.824;2023-06-04T06:01:38;2.88;;;2.08;;
48526;SDS011;34317;51.660;5.824;2023-06-04T06:04:05;3.58;;;2.10;;
48526;SDS011;34317;51.660;5.824;2023-06-04T06:06:33;6.57;;;2.65;;
48526;SDS011;34317;51.660;5.824;2023-06-04T06:09:01;4.65;;;2.00;;
48526;SDS011;34317;51.660;5.824;2023-06-04T06:11:30;4.18;;;2.28;;
48526;SDS011;34317;51.660;5.824;2023-06-04T06:13:57;4.32;;;2.10;;
48526;SDS011;34317;51.660;5.824;2023-06-04T06:16:24;3.75;;;2.30;;
48526;SDS011;34317;51.660;5.824;2023-06-04T06:18:52;4.55;;;2.20;;
48526;SDS011;34317;51.660;5.824;2023-06-04T06:21:20;4.45;;;2.00;;
48526;SDS011;34317;51.660;5.824;2023-06-04T06:23:47;3.28;;;2.20;;
48526;SDS011;34317;51.660;5.824;2023-06-04T06:26:14;4.35;;;2.40;;
48526;SDS011;34317;51.660;5.824;2023-06-04T06:28:49;4.97;;;2.33;;
48526;SDS011;34317;51.660;5.824;2023-06-04T06:31:17;4.05;;;2.20;;
48526;SDS011;34317;51.660;5.824;2023-06-04T06:33:44;2.75;;;2.10;;
48526;SDS011;34317;51.660;5.824;2023-06-04T06:36:11;7.05;;;2.33;;
48526;SDS011;34317;51.660;5.824;2023-06-04T06:38:45;7.50;;;2.28;;
48526;SDS011;34317;51.660;5.824;2023-06-04T06:41:13;3.90;;;2.22;;
48526;SDS011;34317;51.660;5.824;2023-06-04T06:43:40;3.75;;;2.30;;
48526;SDS011;34317;51.660;5.824;2023-06-04T06:46:07;4.70;;;2.08;;
48526;SDS011;34317;51.660;5.824;2023-06-04T06:48:34;4.18;;;2.10;;
48526;SDS011;34317;51.660;5.824;2023-06-04T06:51:03;4.15;;;2.45;;
48526;SDS011;34317;51.660;5.824;2023-06-04T06:53:30;4.50;;;2.25;;
48526;SDS011;34317;51.660;5.824;2023-06-04T06:55:57;4.65;;;2.30;;
48526;SDS011;34317;51.660;5.824;2023-06-04T06:58:24;3.90;;;2.30;;
48526;SDS011;34317;51.660;5.824;2023-06-04T07:00:51;7.00;;;2.17;;
48526;SDS011;34317;51.660;5.824;2023-06-04T07:03:18;7.07;;;2.35;;
48526;SDS011;34317;51.660;5.824;2023-06-04T07:05:46;3.65;;;2.20;;
48526;SDS011;34317;51.660;5.824;2023-06-04T07:08:13;3.55;;;2.30;;
48526;SDS011;34317;51.660;5.824;2023-06-04T07:10:40;5.30;;;2.17;;
48526;SDS011;34317;51.660;5.824;2023-06-04T07:13:07;4.28;;;2.50;;
48526;SDS011;34317;51.660;5.824;2023-06-04T07:15:34;3.47;;;2.10;;
48526;SDS011;34317;51.660;5.824;2023-06-04T07:18:02;5.05;;;2.33;;
48526;SDS011;34317;51.660;5.824;2023-06-04T07:20:29;3.10;;;2.40;;
48526;SDS011;34317;51.660;5.824;2023-06-04T07:22:57;5.30;;;2.20;;
48526;SDS011;34317;51.660;5.824;2023-06-04T07:25:24;3.95;;;2.08;;
48526;SDS011;34317;51.660;5.824;2023-06-04T07:27:52;3.25;;;2.30;;
48526;SDS011;34317;51.660;5.824;2023-06-04T07:30:19;5.03;;;2.28;;
48526;SDS011;34317;51.660;5.824;2023-06-04T07:32:47;3.45;;;2.00;;
48526;SDS011;34317;51.660;5.824;2023-06-04T07:35:15;4.60;;;2.20;;
48526;SDS011;34317;51.660;5.824;2023-06-04T07:37:42;4.25;;;1.98;;
48526;SDS011;34317;51.660;5.824;2023-06-04T07:40:11;3.17;;;2.20;;
48526;SDS011;34317;51.660;5.824;2023-06-04T07:42:39;4.07;;;2.15;;
48526;SDS011;34317;51.660;5.824;2023-06-04T07:45:07;6.00;;;2.15;;
48526;SDS011;34317;51.660;5.824;2023-06-04T07:47:35;4.00;;;2.20;;
48526;SDS011;34317;51.660;5.824;2023-06-04T07:50:04;3.33;;;2.30;;
48526;SDS011;34317;51.660;5.824;2023-06-04T07:52:42;6.90;;;2.60;;
48526;SDS011;34317;51.660;5.824;2023-06-04T07:55:10;3.53;;;2.03;;
48526;SDS011;34317;51.660;5.824;2023-06-04T07:57:37;3.50;;;1.92;;
48526;SDS011;34317;51.660;5.824;2023-06-04T08:00:04;4.43;;;2.10;;
48526;SDS011;34317;51.660;5.824;2023-06-04T08:02:37;3.50;;;2.13;;
48526;SDS011;34317;51.660;5.824;2023-06-04T08:05:04;4.80;;;2.05;;
48526;SDS011;34317;51.660;5.824;2023-06-04T08:07:32;5.38;;;2.13;;
48526;SDS011;34317;51.660;5.824;2023-06-04T08:09:59;3.72;;;2.00;;
48526;SDS011;34317;51.660;5.824;2023-06-04T08:12:26;4.57;;;2.00;;
48526;SDS011;34317;51.660;5.824;2023-06-04T08:14:53;3.80;;;1.88;;
48526;SDS011;34317;51.660;5.824;2023-06-04T08:17:23;5.65;;;2.28;;
48526;SDS011;34317;51.660;5.824;2023-06-04T08:19:51;6.05;;;2.10;;
48526;SDS011;34317;51.660;5.824;2023-06-04T08:22:18;3.70;;;1.77;;
48526;SDS011;34317;51.660;5.824;2023-06-04T08:24:45;2.95;;;1.42;;
48526;SDS011;34317;51.660;5.824;2023-06-04T08:27:12;2.78;;;1.52;;
48526;SDS011;34317;51.660;5.824;2023-06-04T08:29:39;5.47;;;1.98;;
48526;SDS011;34317;51.660;5.824;2023-06-04T08:32:07;2.95;;;1.63;;
48526;SDS011;34317;51.660;5.824;2023-06-04T08:34:34;3.42;;;1.60;;
48526;SDS011;34317;51.660;5.824;2023-06-04T08:37:02;3.38;;;1.52;;
48526;SDS011;34317;51.660;5.824;2023-06-04T08:39:29;6.45;;;1.63;;
48526;SDS011;34317;51.660;5.824;2023-06-04T08:41:59;4.90;;;1.60;;
48526;SDS011;34317;51.660;5.824;2023-06-04T08:44:30;4.25;;;1.58;;
48526;SDS011;34317;51.660;5.824;2023-06-04T08:47:03;2.78;;;1.50;;
48526;SDS011;34317;51.660;5.824;2023-06-04T08:49:33;4.50;;;1.50;;
48526;SDS011;34317;51.660;5.824;2023-06-04T08:52:05;4.40;;;1.50;;
48526;SDS011;34317;51.660;5.824;2023-06-04T08:54:33;4.05;;;1.67;;
48526;SDS011;34317;51.660;5.824;2023-06-04T08:57:00;3.42;;;1.70;;
48526;SDS011;34317;51.660;5.824;2023-06-04T08:59:29;2.20;;;1.30;;
48526;SDS011;34317;51.660;5.824;2023-06-04T09:01:56;2.10;;;1.20;;
48526;SDS011;34317;51.660;5.824;2023-06-04T09:04:24;3.15;;;1.30;;
48526;SDS011;34317;51.660;5.824;2023-06-04T09:06:52;3.55;;;1.15;;
48526;SDS011;34317;51.660;5.824;2023-06-04T09:09:20;3.03;;;1.40;;
48526;SDS011;34317;51.660;5.824;2023-06-04T09:11:51;2.90;;;1.20;;
48526;SDS011;34317;51.660;5.824;2023-06-04T09:14:20;4.03;;;1.40;;
48526;SDS011;34317;51.660;5.824;2023-06-04T09:16:48;2.08;;;1.30;;
48526;SDS011;34317;51.660;5.824;2023-06-04T09:19:19;3.30;;;1.50;;
48526;SDS011;34317;51.660;5.824;2023-06-04T09:21:47;3.63;;;1.35;;
48526;SDS011;34317;51.660;5.824;2023-06-04T09:24:21;2.60;;;1.38;;
48526;SDS011;34317;51.660;5.824;2023-06-04T09:26:49;3.35;;;1.38;;
48526;SDS011;34317;51.660;5.824;2023-06-04T09:29:17;2.80;;;1.27;;
48526;SDS011;34317;51.660;5.824;2023-06-04T09:31:45;4.28;;;1.20;;
48526;SDS011;34317;51.660;5.824;2023-06-04T09:34:14;3.42;;;1.30;;
48526;SDS011;34317;51.660;5.824;2023-06-04T09:36:41;2.65;;;1.35;;
48526;SDS011;34317;51.660;5.824;2023-06-04T09:39:15;2.50;;;1.30;;
48526;SDS011;34317;51.660;5.824;2023-06-04T09:41:43;3.20;;;1.38;;
48526;SDS011;34317;51.660;5.824;2023-06-04T09:44:11;2.63;;;1.40;;
48526;SDS011;34317;51.660;5.824;2023-06-04T09:46:39;3.33;;;1.30;;
48526;SDS011;34317;51.660;5.824;2023-06-04T09:49:06;3.50;;;1.40;;
48526;SDS011;34317;51.660;5.824;2023-06-04T09:51:33;2.03;;;1.30;;
48526;SDS011;34317;51.660;5.824;2023-06-04T09:54:01;2.67;;;1.33;;
48526;SDS011;34317;51.660;5.824;2023-06-04T09:56:38;1.40;;;0.90;;
48526;SDS011;34317;51.660;5.824;2023-06-04T09:59:08;3.67;;;1.10;;
48526;SDS011;34317;51.660;5.824;2023-06-04T10:01:40;2.83;;;0.90;;
48526;SDS011;34317;51.660;5.824;2023-06-04T10:04:10;2.55;;;1.15;;
48526;SDS011;34317;51.660;5.824;2023-06-04T10:06:40;3.28;;;1.00;;
48526;SDS011;34317;51.660;5.824;2023-06-04T10:09:08;2.08;;;0.90;;
48526;SDS011;34317;51.660;5.824;2023-06-04T10:11:47;3.35;;;1.00;;
48526;SDS011;34317;51.660;5.824;2023-06-04T10:14:22;2.60;;;0.90;;
48526;SDS011;34317;51.660;5.824;2023-06-04T10:16:53;2.25;;;0.90;;
48526;SDS011;34317;51.660;5.824;2023-06-04T10:19:23;1.52;;;0.90;;
48526;SDS011;34317;51.660;5.824;2023-06-04T10:21:52;3.05;;;1.00;;
48526;SDS011;34317;51.660;5.824;2023-06-04T10:24:19;2.25;;;1.10;;
48526;SDS011;34317;51.660;5.824;2023-06-04T10:26:47;1.90;;;1.00;;
48526;SDS011;34317;51.660;5.824;2023-06-04T10:29:15;2.47;;;1.10;;
48526;SDS011;34317;51.660;5.824;2023-06-04T10:31:44;1.58;;;1.02;;
48526;SDS011;34317;51.660;5.824;2023-06-04T10:34:12;5.40;;;1.10;;
48526;SDS011;34317;51.660;5.824;2023-06-04T10:36:44;1.65;;;1.00;;
48526;SDS011;34317;51.660;5.824;2023-06-04T10:39:12;1.52;;;1.00;;
48526;SDS011;34317;51.660;5.824;2023-06-04T10:41:40;1.30;;;0.90;;
48526;SDS011;34317;51.660;5.824;2023-06-04T10:44:07;2.95;;;1.10;;
48526;SDS011;34317;51.660;5.824;2023-06-04T10:46:40;2.60;;;1.10;;
48526;SDS011;34317;51.660;5.824;2023-06-04T10:49:09;2.00;;;1.00;;
48526;SDS011;34317;51.660;5.824;2023-06-04T10:51:41;3.38;;;1.10;;
48526;SDS011;34317;51.660;5.824;2023-06-04T10:54:10;1.83;;;1.10;;
48526;SDS011;34317;51.660;5.824;2023-06-04T10:56:48;2.10;;;1.08;;
48526;SDS011;34317;51.660;5.824;2023-06-04T10:59:16;4.13;;;1.20;;
48526;SDS011;34317;51.660;5.824;2023-06-04T11:01:45;2.38;;;1.08;;
48526;SDS011;34317;51.660;5.824;2023-06-04T11:06:48;3.35;;;1.35;;
48526;SDS011;34317;51.660;5.824;2023-06-04T11:09:27;3.13;;;1.20;;
48526;SDS011;34317;51.660;5.824;2023-06-04T11:11:58;2.15;;;1.10;;
48526;SDS011;34317;51.660;5.824;2023-06-04T11:14:26;1.50;;;1.15;;
48526;SDS011;34317;51.660;5.824;2023-06-04T11:16:53;4.05;;;1.27;;
48526;SDS011;34317;51.660;5.824;2023-06-04T11:19:20;3.00;;;1.20;;
48526;SDS011;34317;51.660;5.824;2023-06-04T11:21:48;4.03;;;1.48;;
48526;SDS011;34317;51.660;5.824;2023-06-04T11:24:16;4.22;;;1.35;;
48526;SDS011;34317;51.660;5.824;2023-06-04T11:26:43;3.85;;;1.20;;
48526;SDS011;34317;51.660;5.824;2023-06-04T11:29:26;3.13;;;1.40;;
48526;SDS011;34317;51.660;5.824;2023-06-04T11:31:53;2.70;;;1.10;;
48526;SDS011;34317;51.660;5.824;2023-06-04T11:34:22;4.20;;;1.05;;
48526;SDS011;34317;51.660;5.824;2023-06-04T11:37:08;1.60;;;1.15;;
48526;SDS011;34317;51.660;5.824;2023-06-04T11:39:36;2.97;;;1.10;;
48526;SDS011;34317;51.660;5.824;2023-06-04T11:42:06;3.17;;;1.20;;
48526;SDS011;34317;51.660;5.824;2023-06-04T11:44:34;2.00;;;1.20;;
48526;SDS011;34317;51.660;5.824;2023-06-04T11:47:04;2.60;;;1.30;;
48526;SDS011;34317;51.660;5.824;2023-06-04T11:49:34;3.15;;;1.25;;
48526;SDS011;34317;51.660;5.824;2023-06-04T11:52:04;3.25;;;1.40;;
48526;SDS011;34317;51.660;5.824;2023-06-04T11:54:31;2.40;;;1.10;;
48526;SDS011;34317;51.660;5.824;2023-06-04T11:57:03;3.60;;;1.30;;
48526;SDS011;34317;51.660;5.824;2023-06-04T11:59:31;1.40;;;1.10;;
48526;SDS011;34317;51.660;5.824;2023-06-04T12:01:59;1.98;;;1.33;;
48526;SDS011;34317;51.660;5.824;2023-06-04T12:04:29;1.90;;;1.20;;
48526;SDS011;34317;51.660;5.824;2023-06-04T12:06:58;3.60;;;1.25;;
48526;SDS011;34317;51.660;5.824;2023-06-04T12:09:31;2.63;;;1.27;;
48526;SDS011;34317;51.660;5.824;2023-06-04T12:12:05;1.75;;;1.13;;
48526;SDS011;34317;51.660;5.824;2023-06-04T12:14:33;1.65;;;1.30;;
48526;SDS011;34317;51.660;5.824;2023-06-04T12:17:01;2.35;;;1.13;;
48526;SDS011;34317;51.660;5.824;2023-06-04T12:19:46;2.80;;;1.17;;
48526;SDS011;34317;51.660;5.824;2023-06-04T12:22:18;1.88;;;1.30;;
48526;SDS011;34317;51.660;5.824;2023-06-04T12:24:52;2.03;;;1.10;;
48526;SDS011;34317;51.660;5.824;2023-06-04T12:27:23;1.67;;;1.10;;
48526;SDS011;34317;51.660;5.824;2023-06-04T12:29:59;1.63;;;1.10;;
48526;SDS011;34317;51.660;5.824;2023-06-04T12:32:28;1.67;;;1.10;;
48526;SDS011;34317;51.660;5.824;2023-06-04T12:34:55;2.00;;;1.20;;
48526;SDS011;34317;51.660;5.824;2023-06-04T12:37:23;1.80;;;1.20;;
48526;SDS011;34317;51.660;5.824;2023-06-04T12:39:55;3.92;;;1.42;;
48526;SDS011;34317;51.660;5.824;2023-06-04T12:42:22;2.40;;;1.30;;
48526;SDS011;34317;51.660;5.824;2023-06-04T12:44:50;2.45;;;1.30;;
48526;SDS011;34317;51.660;5.824;2023-06-04T12:47:17;1.83;;;1.30;;
48526;SDS011;34317;51.660;5.824;2023-06-04T12:49:45;1.95;;;1.10;;
48526;SDS011;34317;51.660;5.824;2023-06-04T12:52:12;1.98;;;1.20;;
48526;SDS011;34317;51.660;5.824;2023-06-04T12:54:42;3.45;;;1.30;;
48526;SDS011;34317;51.660;5.824;2023-06-04T12:57:10;4.00;;;1.27;;
48526;SDS011;34317;51.660;5.824;2023-06-04T12:59:37;1.95;;;1.25;;
48526;SDS011;34317;51.660;5.824;2023-06-04T13:02:04;2.00;;;1.20;;
48526;SDS011;34317;51.660;5.824;2023-06-04T13:04:32;2.50;;;1.40;;
48526;SDS011;34317;51.660;5.824;2023-06-04T13:06:59;1.60;;;1.10;;
48526;SDS011;34317;51.660;5.824;2023-06-04T13:09:26;4.40;;;1.30;;
48526;SDS011;34317;51.660;5.824;2023-06-04T13:11:57;2.03;;;1.33;;
48526;SDS011;34317;51.660;5.824;2023-06-04T13:14:24;3.15;;;1.30;;
48526;SDS011;34317;51.660;5.824;2023-06-04T13:16:51;2.85;;;1.42;;
48526;SDS011;34317;51.660;5.824;2023-06-04T13:19:19;2.03;;;1.30;;
48526;SDS011;34317;51.660;5.824;2023-06-04T13:21:47;1.88;;;1.23;;
48526;SDS011;34317;51.660;5.824;2023-06-04T13:24:14;4.60;;;1.10;;
48526;SDS011;34317;51.660;5.824;2023-06-04T13:26:42;3.35;;;1.30;;
48526;SDS011;34317;51.660;5.824;2023-06-04T13:29:09;3.90;;;1.38;;
48526;SDS011;34317;51.660;5.824;2023-06-04T13:31:37;2.53;;;1.50;;
48526;SDS011;34317;51.660;5.824;2023-06-04T13:34:06;2.60;;;1.30;;
48526;SDS011;34317;51.660;5.824;2023-06-04T13:36:53;1.90;;;1.40;;
48526;SDS011;34317;51.660;5.824;2023-06-04T13:39:22;2.05;;;1.30;;
48526;SDS011;34317;51.660;5.824;2023-06-04T13:41:49;1.85;;;1.27;;
48526;SDS011;34317;51.660;5.824;2023-06-04T13:44:16;2.03;;;1.40;;
48526;SDS011;34317;51.660;5.824;2023-06-04T13:46:44;1.77;;;1.35;;
48526;SDS011;34317;51.660;5.824;2023-06-04T13:49:11;2.92;;;1.40;;
48526;SDS011;34317;51.660;5.824;2023-06-04T13:51:38;2.22;;;1.30;;
48526;SDS011;34317;51.660;5.824;2023-06-04T13:54:05;2.00;;;1.20;;
48526;SDS011;34317;51.660;5.824;2023-06-04T13:56:32;3.55;;;1.40;;
48526;SDS011;34317;51.660;5.824;2023-06-04T13:59:00;5.10;;;1.40;;
48526;SDS011;34317;51.660;5.824;2023-06-04T14:01:27;2.08;;;1.48;;
48526;SDS011;34317;51.660;5.824;2023-06-04T14:03:55;2.00;;;1.30;;
48526;SDS011;34317;51.660;5.824;2023-06-04T14:06:22;2.10;;;1.30;;
48526;SDS011;34317;51.660;5.824;2023-06-04T14:08:49;1.70;;;1.27;;
48526;SDS011;34317;51.660;5.824;2023-06-04T14:11:16;1.70;;;1.23;;
48526;SDS011;34317;51.660;5.824;2023-06-04T14:13:43;2.15;;;1.35;;
48526;SDS011;34317;51.660;5.824;2023-06-04T14:16:12;2.60;;;1.52;;
48526;SDS011;34317;51.660;5.824;2023-06-04T14:18:39;1.90;;;1.25;;
48526;SDS011;34317;51.660;5.824;2023-06-04T14:21:06;2.78;;;1.40;;
48526;SDS011;34317;51.660;5.824;2023-06-04T14:23:34;1.98;;;1.40;;
48526;SDS011;34317;51.660;5.824;2023-06-04T14:26:01;1.80;;;1.20;;
48526;SDS011;34317;51.660;5.824;2023-06-04T14:28:29;2.75;;;1.40;;
48526;SDS011;34317;51.660;5.824;2023-06-04T14:30:56;2.88;;;1.30;;
48526;SDS011;34317;51.660;5.824;2023-06-04T14:33:25;2.30;;;1.52;;
48526;SDS011;34317;51.660;5.824;2023-06-04T14:35:52;6.30;;;1.40;;
48526;SDS011;34317;51.660;5.824;2023-06-04T14:38:19;1.80;;;1.40;;
48526;SDS011;34317;51.660;5.824;2023-06-04T14:40:46;2.75;;;1.55;;
48526;SDS011;34317;51.660;5.824;2023-06-04T14:43:13;2.33;;;1.48;;
48526;SDS011;34317;51.660;5.824;2023-06-04T14:45:41;2.17;;;1.33;;
48526;SDS011;34317;51.660;5.824;2023-06-04T14:48:08;2.72;;;1.30;;
48526;SDS011;34317;51.660;5.824;2023-06-04T14:50:38;3.78;;;1.45;;
48526;SDS011;34317;51.660;5.824;2023-06-04T14:53:06;1.83;;;1.40;;
48526;SDS011;34317;51.660;5.824;2023-06-04T14:55:34;3.45;;;1.75;;
48526;SDS011;34317;51.660;5.824;2023-06-04T14:58:02;2.38;;;1.20;;
48526;SDS011;34317;51.660;5.824;2023-06-04T15:00:30;1.67;;;1.23;;
48526;SDS011;34317;51.660;5.824;2023-06-04T15:02:58;2.72;;;1.48;;
48526;SDS011;34317;51.660;5.824;2023-06-04T15:05:27;2.45;;;1.48;;